Latest Coastal Weather Observations for Cape Bruny AWS

IDT60701

Issued at 4:52 am EST Thursday 3 September 2026 (issued every 10 minutes, with the page automatically refreshed every 10 minutes)

About coastal observations | Map of coastal stations | Coastal observations for TAS | Marine services | Other Formats
Station Details ID: 094198 Name: CAPE BRUNY (CAPE BRUNY) Lat: -43.49 Lon: 147.14 Height: 59.7 m
Data from the previous 72 hours. | See also: Recent months at Cape Bruny AWS
Date/Time
EST
Wind Sea
Height
m
Swell Vis
km
Cloud Weather Temp
°C
Press
MSL
hPa
Rain since
9am
mm
Dir  Spd
kts
Gust
kts
Height
m
Period
s
Dir
03/04:46am W 19 37 - - - - - - - 11.3 991.6 0.2
03/04:37am WNW 19 27 - - - - - - - 13.0 991.4 0.2
03/04:30am NW 18 26 - - - - - - - 13.0 991.2 0.2
03/04:26am NW 15 26 - - - - - - - 12.9 990.8 0.2
03/04:18am NW 11 19 - - - - - - - 12.4 990.4 0.2
03/04:00am NW 17 25 - - - - - - - 12.9 990.2 0.2
03/03:45am NW 15 25 - - - - - - - 12.7 990.5 0.2
03/03:30am NNW 13 24 - - - - - - - 12.3 990.5 0.2
03/03:14am NNW 12 19 - - - - - - - 12.2 991.3 0.2
03/03:10am NNW 12 19 - - - - - - - 12.0 991.5 0.2
03/03:00am NNW 15 25 - - - - - - - 12.1 991.8 0.2
03/02:30am NNW 10 15 - - - - - - - 11.0 992.9 0.2
03/02:00am NNW 9 15 - - - - - - - 11.1 994.0 0.2
03/01:30am NNW 12 16 - - - - - - - 11.6 994.6 0.0
03/01:00am N 10 14 - - - - - - - 11.9 994.9 0.0
03/12:30am N 10 13 - - - - - - - 11.8 995.4 0.0
03/12:00am N 8 11 - - - - - - - 12.1 995.9 0.0
 
Date/Time
EST
Wind Sea
Height
m
Swell Vis
km
Cloud Weather Temp
°C
Press
MSL
hPa
Rain since
9am
mm
Dir  Spd
kts
Gust
kts
Height
m
Period
s
Dir
02/11:30pm N 10 15 - - - - - - - 12.3 996.9 0.0
02/11:00pm N 11 17 - - - - - - - 12.3 997.3 0.0
02/10:30pm N 11 18 - - - - - - - 12.4 997.7 0.0
02/10:00pm N 12 20 - - - - - - - 12.3 998.3 0.0
02/09:30pm N 11 17 - - - - - - - 12.3 998.5 0.0
02/09:00pm N 12 19 - - - - - - - 12.3 998.9 0.0
02/08:30pm N 11 18 - - - - - - - 12.2 999.4 0.0
02/08:00pm N 9 16 - - - - - - - 12.0 999.6 0.0
02/07:30pm N 10 14 - - - - - - - 11.9 1000.0 0.0
02/07:00pm NNW 11 15 - - - - - - - 12.1 1000.2 0.0
02/06:30pm NNW 12 15 - - - - - - - 11.8 1000.2 0.0
02/06:00pm NNW 11 14 - - - - - - - 11.7 1000.7 0.0
02/05:30pm NW 11 15 - - - - - - - 12.3 1000.8 0.0
02/05:00pm NW 12 17 - - - - - - - 12.5 1000.7 0.0
02/04:30pm NW 19 27 - - - - - - - 12.9 1000.8 0.0
02/04:00pm WNW 24 30 - - - - - - - 13.7 1000.4 0.0
02/03:49pm WNW 23 30 - - - - - - - 14.3 1000.1 0.0
02/03:30pm WNW 21 33 - - - - - - - 15.3 1000.6 0.0
02/03:23pm WNW 15 26 - - - - - - - 15.6 1000.7 0.0
02/03:00pm WNW 12 19 - - - - - - - 14.5 1001.0 0.0
02/02:30pm WNW 11 16 - - - - - - - 13.9 1000.9 0.0
02/02:00pm NW 11 15 - - - - - - - 14.0 1001.0 0.0
02/01:30pm WNW 15 19 - - - - - - - 13.7 1001.4 0.0
02/01:10pm WNW 19 25 - - - - - - - 13.9 1001.6 0.0
02/01:00pm NW 19 29 - - - - - - - 13.9 1001.7 0.0
02/12:56pm NW 19 29 - - - - - - - 13.9 1001.7 0.0
02/12:30pm NW 14 20 - - - - - - - 15.0 1002.1 0.0
02/12:00pm NW 13 21 - - - - - - - 13.2 1003.0 0.0
02/11:30am WNW 9 12 - - - - - - - 12.7 1003.3 0.0
02/11:00am WNW 10 13 - - - - - - - 12.6 1003.5 0.0
02/10:30am NW 11 15 - - - - - - - 12.5 1003.8 0.0
02/10:00am NW 14 18 - - - - - - - 12.7 1003.9 0.0
02/09:30am NW 11 15 - - - - - - - 13.0 1004.2 0.0
02/09:00am NW 9 12 - - - - - - - 12.1 1004.4 0.8
02/08:30am NW 9 13 - - - - - - - 11.8 1004.2 0.8
02/08:00am NW 12 18 - - - - - - - 11.2 1004.3 0.8
02/07:30am NW 12 16 - - - - - - - 10.7 1003.8 0.8
02/07:00am NW 13 18 - - - - - - - 10.5 1003.8 0.8
02/06:30am NW 12 20 - - - - - - - 10.5 1003.5 0.8
02/06:00am NW 11 17 - - - - - - - 10.3 1003.7 0.8
02/05:30am NW 12 16 - - - - - - - 10.2 1003.6 0.8
02/05:00am NW 16 23 - - - - - - - 10.1 1003.4 0.8
02/04:30am WNW 17 23 - - - - - - - 10.3 1003.2 0.8
02/04:00am WNW 16 23 - - - - - - - 9.9 1003.1 0.8
02/03:30am WNW 18 23 - - - - - - - 9.9 1003.3 0.8
02/03:06am WNW 16 23 - - - - - - - 9.7 1002.9 0.8
02/03:00am WNW 19 27 - - - - - - - 9.9 1003.0 0.8
02/02:56am WNW 21 31 - - - - - - - 9.9 1002.9 0.8
02/02:44am WNW 24 30 - - - - - - - 10.0 1002.7 0.8
02/02:30am WNW 21 31 - - - - - - - 10.1 1002.6 0.8
02/02:29am WNW 21 31 - - - - - - - 10.1 1002.6 0.8
02/02:00am WNW 19 24 - - - - - - - 10.0 1003.1 0.8
02/01:42am WNW 21 29 - - - - - - - 10.0 1003.4 0.8
02/01:30am WNW 23 34 - - - - - - - 10.1 1003.2 0.8
02/01:22am WNW 21 31 - - - - - - - 10.0 1003.1 0.8
02/01:00am WNW 20 25 - - - - - - - 10.1 1003.0 0.8
02/12:30am WNW 19 27 - - - - - - - 10.2 1003.1 0.8
02/12:00am NW 16 21 - - - - - - - 10.4 1003.2 0.8
 
Date/Time
EST
Wind Sea
Height
m
Swell Vis
km
Cloud Weather Temp
°C
Press
MSL
hPa
Rain since
9am
mm
Dir  Spd
kts
Gust
kts
Height
m
Period
s
Dir
01/11:30pm WNW 13 21 - - - - - - - 10.2 1003.2 0.8
01/11:00pm W 18 21 - - - - - - - 10.7 1003.0 0.8
01/10:30pm WSW 21 25 - - - - - - - 10.7 1002.8 0.8
01/10:00pm WSW 25 29 - - - - - - - 10.8 1002.5 0.8
01/09:30pm WSW 24 30 - - - - - - - 10.7 1002.2 0.8
01/09:02pm WSW 24 30 - - - - - - - 10.6 1001.9 0.8
01/09:00pm WSW 24 30 - - - - - - - 10.5 1001.9 0.8
01/08:50pm WSW 22 32 - - - - - - - 10.5 1001.7 0.8
01/08:30pm WSW 22 29 - - - - - - - 10.6 1001.4 0.8
01/08:00pm WSW 20 26 - - - - - - - 11.2 1001.2 0.8
01/07:43pm WSW 17 29 - - - - - - - 11.9 1000.8 0.8
01/07:30pm NW 19 25 - - - - - - - 13.2 1000.0 0.0
01/07:00pm NW 13 18 - - - - - - - 13.5 999.7 0.0
01/06:30pm NW 15 21 - - - - - - - 13.8 1000.0 0.0
01/06:18pm NW 14 20 - - - - - - - 14.0 1000.1 0.0
01/06:08pm NW 15 25 - - - - - - - 14.0 999.9 0.0
01/06:00pm NW 17 25 - - - - - - - 14.0 999.8 0.0
01/05:49pm NW 17 26 - - - - - - - 14.1 999.9 0.0
01/05:34pm NW 21 31 - - - - - - - 14.4 999.8 0.0
01/05:30pm NW 23 31 - - - - - - - 14.5 999.7 0.0
01/05:26pm NW 23 31 - - - - - - - 14.5 999.7 0.0
01/05:04pm NW 24 34 - - - - - - - 14.8 999.7 0.0
01/05:02pm NW 24 32 - - - - - - - 14.9 999.8 0.0
01/05:00pm NW 24 32 - - - - - - - 14.9 999.8 0.0
01/04:41pm WNW 26 36 - - - - - - - 15.4 999.8 0.0
01/04:39pm NW 25 32 - - - - - - - 15.4 999.9 0.0
01/04:30pm NW 25 32 - - - - - - - 15.5 1000.1 0.0
01/04:00pm NW 24 35 - - - - - - - 16.1 1000.5 0.0
01/03:47pm WNW 19 26 - - - - - - - 15.9 1000.7 0.0
01/03:37pm NW 20 36 - - - - - - - 16.1 1000.5 0.0
01/03:30pm NW 18 26 - - - - - - - 15.9 1000.6 0.0
01/03:24pm NW 18 28 - - - - - - - 16.2 1000.6 0.0
01/03:17pm NW 20 27 - - - - - - - 16.6 1000.6 0.0
01/03:00pm NW 23 34 - - - - - - - 16.3 1000.8 0.0
01/02:30pm NW 25 35 - - - - - - - 16.3 1001.8 0.0
01/02:18pm WNW 28 50 - - - - - - - 16.5 1001.9 0.0
01/02:13pm WNW 31 50 - - - - - - - 16.6 1001.9 0.0
01/02:09pm WNW 28 50 - - - - - - - 16.8 1001.9 0.0
01/02:08pm WNW 27 47 - - - - - - - 16.7 1001.9 0.0
01/02:00pm WNW 23 36 - - - - - - - 17.4 1002.3 0.0
01/01:57pm NW 25 42 - - - - - - - 17.5 1002.3 0.0
01/01:53pm NW 27 48 - - - - - - - 17.3 1002.2 0.0
01/01:48pm NW 24 48 - - - - - - - 17.6 1002.2 0.0
01/01:47pm NW 23 48 - - - - - - - 17.5 1002.2 0.0
01/01:30pm NW 21 35 - - - - - - - 17.9 1002.7 0.0
01/01:13pm NW 25 33 - - - - - - - 17.6 1003.3 0.0
01/01:03pm NW 19 38 - - - - - - - 17.6 1003.6 0.0
01/01:00pm NW 15 26 - - - - - - - 17.6 1003.8 0.0
01/12:30pm NNE 9 14 - - - - - - - 16.6 1004.8 0.0
01/12:00pm NNE 10 14 - - - - - - - 15.8 1005.7 0.0
01/11:30am NNE 8 11 - - - - - - - 15.3 1006.6 0.0
01/11:00am N 8 13 - - - - - - - 14.6 1007.4 0.0
01/10:30am N 10 14 - - - - - - - 14.6 1007.8 0.0
01/10:00am NNW 9 17 - - - - - - - 14.8 1009.1 0.0
01/09:30am NW 13 20 - - - - - - - 14.7 1009.5 0.0
01/09:00am NW 17 25 - - - - - - - 14.6 1010.0 0.0
01/08:30am NNW 15 20 - - - - - - - 13.6 1010.4 0.0
01/08:00am N 13 19 - - - - - - - 12.3 1011.0 0.0
01/07:30am N 13 22 - - - - - - - 12.3 1011.1 0.0
01/07:24am N 15 22 - - - - - - - 12.5 1011.1 0.0
01/07:08am N 15 26 - - - - - - - 12.3 1011.1 0.0
01/07:00am N 14 22 - - - - - - - 12.1 1011.1 0.0
01/06:30am N 13 21 - - - - - - - 11.6 1011.6 0.0
01/06:00am N 13 19 - - - - - - - 11.4 1012.1 0.0
01/05:30am N 12 17 - - - - - - - 11.3 1012.7 0.0
01/05:00am N 13 19 - - - - - - - 10.7 1013.2 0.0
01/04:44am NNW 16 23 - - - - - - - 11.4 1013.5 0.0
01/04:35am NNW 16 24 - - - - - - - 11.7 1013.6 0.0
01/04:30am NNW 17 27 - - - - - - - 11.9 1013.7 0.0
01/04:25am NNW 17 27 - - - - - - - 12.4 1013.7 0.0
01/04:00am N 12 16 - - - - - - - 9.3 1013.9 0.0
01/03:30am N 11 15 - - - - - - - 9.3 1014.6 0.0
01/03:00am N 9 13 - - - - - - - 9.0 1015.2 0.0
01/02:30am N 12 15 - - - - - - - 9.1 1015.9 0.0
01/02:21am N 15 18 - - - - - - - 9.3 1016.3 0.0
01/02:11am NNW 8 17 - - - - - - - 8.8 1016.6 0.0
01/02:00am N 3 5 - - - - - - - 8.6 1017.0 0.0
01/01:30am NNW 11 14 - - - - - - - 9.1 1017.7 0.0
01/01:00am NW 7 11 - - - - - - - 9.3 1018.1 0.0
01/12:30am NW 13 17 - - - - - - - 9.8 1018.4 0.0
01/12:00am NW 13 17 - - - - - - - 10.0 1018.8 0.0
 
Date/Time
EST
Wind Sea
Height
m
Swell Vis
km
Cloud Weather Temp
°C
Press
MSL
hPa
Rain since
9am
mm
Dir  Spd
kts
Gust
kts
Height
m
Period
s
Dir
31/11:30pm NW 11 15 - - - - - - - 10.1 1019.3 0.0
31/11:00pm NNW 9 11 - - - - - - - 9.6 1020.1 0.0
31/10:30pm NNW 7 8 - - - - - - - 9.7 1020.7 0.0
31/10:00pm NW 7 11 - - - - - - - 10.4 1021.0 0.0
31/09:30pm NW 8 10 - - - - - - - 11.0 1021.2 0.0
31/09:00pm WNW 7 9 - - - - - - - 11.0 1021.1 0.0
31/08:30pm WNW 11 15 - - - - - - - 11.6 1021.3 0.0
31/08:00pm NW 9 13 - - - - - - - 11.6 1021.7 0.0
31/07:30pm WNW 5 6 - - - - - - - 10.9 1021.9 0.0
31/07:00pm WSW 7 10 - - - - - - - 11.0 1022.0 0.0
31/06:30pm E 5 7 - - - - - - - 11.1 1022.0 0.0
31/06:00pm ENE 7 9 - - - - - - - 11.5 1022.0 0.0
31/05:30pm E 3 5 - - - - - - - 12.0 1021.9 0.0
31/05:00pm ESE 5 9 - - - - - - - 12.8 1022.1 0.0
31/04:30pm ESE 6 10 - - - - - - - 13.4 1022.2 0.0
31/04:00pm ESE 7 9 - - - - - - - 14.0 1022.2 0.0
31/03:30pm ESE 7 11 - - - - - - - 15.4 1022.5 0.0
31/03:00pm WNW 8 12 - - - - - - - 18.1 1022.5 0.0
31/02:30pm WNW 8 11 - - - - - - - 18.0 1022.7 0.0
31/02:00pm NNW 5 9 - - - - - - - 18.5 1022.9 0.0
31/01:30pm NW 11 14 - - - - - - - 17.4 1023.1 0.0
31/01:00pm WNW 15 22 - - - - - - - 16.5 1023.3 0.0
31/12:30pm NW 17 23 - - - - - - - 15.0 1023.6 0.0
31/12:00pm WNW 16 22 - - - - - - - 15.5 1023.8 0.0
31/11:30am WNW 18 25 - - - - - - - 15.0 1024.3 0.0
31/11:00am NW 17 22 - - - - - - - 14.4 1024.7 0.0
31/10:59am NW 17 22 - - - - - - - 14.4 1024.7 0.0
31/10:47am NW 17 27 - - - - - - - 14.3 1024.7 0.0
31/10:33am WNW 19 27 - - - - - - - 13.7 1024.8 0.0
31/10:30am WNW 19 27 - - - - - - - 13.6 1024.8 0.0
31/10:14am WNW 21 31 - - - - - - - 13.2 1024.9 0.0
31/10:00am WNW 18 27 - - - - - - - 12.8 1025.2 0.0
31/09:30am WNW 23 30 - - - - - - - 11.9 1025.3 0.0
31/09:00am WNW 19 25 - - - - - - - 11.7 1025.5 0.0
31/08:30am WNW 19 27 - - - - - - - 11.8 1025.6 0.0
31/08:00am WNW 21 28 - - - - - - - 11.4 1025.4 0.0
31/07:50am WNW 18 28 - - - - - - - 11.1 1025.5 0.0
31/07:30am WNW 18 23 - - - - - - - 11.1 1025.4 0.0
31/07:00am WNW 17 23 - - - - - - - 11.1 1025.2 0.0
31/06:30am WNW 16 22 - - - - - - - 10.9 1025.0 0.0
31/06:00am WNW 14 19 - - - - - - - 10.9 1024.9 0.0
31/05:30am WNW 18 25 - - - - - - - 11.1 1024.7 0.0
31/05:17am NW 17 23 - - - - - - - 11.0 1024.7 0.0
31/05:02am WNW 18 28 - - - - - - - 11.1 1024.5 0.0
31/05:00am WNW 19 28 - - - - - - - 11.1 1024.5 0.0

Other formats

Comma delimited format used in spreadsheet applications
http://www.bom.gov.au/fwo/IDT60701/IDT60701.95967.axf

JavaScript Object Notation format (JSON) in row-major order
http://www.bom.gov.au/fwo/IDT60701/IDT60701.95967.json

Data quality

Most of these data are generated automatically and are frequently updated. Quality checks on data are not normally performed. It is possible for incorrect values to appear. Refer to information at About Latest Weather Observations and please check the disclaimer before using these data.